sensor_id;sensor_type;location;lat;lon;timestamp;P1;durP1;ratioP1;P2;durP2;ratioP2
34673;SDS011;20879;55.668;37.858;2023-08-20T00:00:15;23.45;;;15.48;;
34673;SDS011;20879;55.668;37.858;2023-08-20T00:02:46;21.98;;;15.57;;
34673;SDS011;20879;55.668;37.858;2023-08-20T00:05:28;20.20;;;15.50;;
34673;SDS011;20879;55.668;37.858;2023-08-20T00:08:05;21.30;;;16.27;;
34673;SDS011;20879;55.668;37.858;2023-08-20T00:10:35;23.35;;;15.40;;
34673;SDS011;20879;55.668;37.858;2023-08-20T00:13:05;18.63;;;15.18;;
34673;SDS011;20879;55.668;37.858;2023-08-20T00:15:37;26.23;;;16.73;;
34673;SDS011;20879;55.668;37.858;2023-08-20T00:18:09;24.95;;;15.57;;
34673;SDS011;20879;55.668;37.858;2023-08-20T00:20:43;25.63;;;16.65;;
34673;SDS011;20879;55.668;37.858;2023-08-20T00:23:16;24.15;;;16.52;;
34673;SDS011;20879;55.668;37.858;2023-08-20T00:25:47;20.88;;;16.10;;
34673;SDS011;20879;55.668;37.858;2023-08-20T00:28:18;23.55;;;16.92;;
34673;SDS011;20879;55.668;37.858;2023-08-20T00:30:50;23.33;;;16.83;;
34673;SDS011;20879;55.668;37.858;2023-08-20T00:35:53;23.70;;;16.38;;
34673;SDS011;20879;55.668;37.858;2023-08-20T00:38:28;23.98;;;16.88;;
34673;SDS011;20879;55.668;37.858;2023-08-20T00:40:58;28.35;;;16.35;;
34673;SDS011;20879;55.668;37.858;2023-08-20T00:43:35;29.92;;;16.85;;
34673;SDS011;20879;55.668;37.858;2023-08-20T00:46:07;20.77;;;16.52;;
34673;SDS011;20879;55.668;37.858;2023-08-20T00:48:43;21.25;;;16.42;;
34673;SDS011;20879;55.668;37.858;2023-08-20T00:51:18;22.00;;;16.40;;
34673;SDS011;20879;55.668;37.858;2023-08-20T00:53:49;22.92;;;16.45;;
34673;SDS011;20879;55.668;37.858;2023-08-20T00:56:21;25.75;;;16.80;;
34673;SDS011;20879;55.668;37.858;2023-08-20T00:58:52;23.17;;;16.55;;
34673;SDS011;20879;55.668;37.858;2023-08-20T01:01:24;20.83;;;15.75;;
34673;SDS011;20879;55.668;37.858;2023-08-20T01:04:03;22.17;;;16.63;;
34673;SDS011;20879;55.668;37.858;2023-08-20T01:06:43;26.70;;;16.92;;
34673;SDS011;20879;55.668;37.858;2023-08-20T01:09:21;21.58;;;17.25;;
34673;SDS011;20879;55.668;37.858;2023-08-20T01:12:01;23.50;;;17.40;;
34673;SDS011;20879;55.668;37.858;2023-08-20T01:14:37;21.50;;;17.05;;
34673;SDS011;20879;55.668;37.858;2023-08-20T01:17:08;21.48;;;17.38;;
34673;SDS011;20879;55.668;37.858;2023-08-20T01:19:40;25.55;;;17.65;;
34673;SDS011;20879;55.668;37.858;2023-08-20T01:25:23;25.30;;;16.83;;
34673;SDS011;20879;55.668;37.858;2023-08-20T01:28:07;22.98;;;16.83;;
34673;SDS011;20879;55.668;37.858;2023-08-20T01:30:51;25.30;;;16.87;;
34673;SDS011;20879;55.668;37.858;2023-08-20T01:33:30;23.10;;;16.52;;
34673;SDS011;20879;55.668;37.858;2023-08-20T01:36:00;19.92;;;15.77;;
34673;SDS011;20879;55.668;37.858;2023-08-20T01:38:36;24.08;;;15.95;;
34673;SDS011;20879;55.668;37.858;2023-08-20T01:41:11;26.50;;;16.77;;
34673;SDS011;20879;55.668;37.858;2023-08-20T01:43:48;27.02;;;16.98;;
34673;SDS011;20879;55.668;37.858;2023-08-20T01:46:18;23.38;;;16.90;;
34673;SDS011;20879;55.668;37.858;2023-08-20T01:48:53;20.75;;;17.25;;
34673;SDS011;20879;55.668;37.858;2023-08-20T01:51:22;25.30;;;17.88;;
34673;SDS011;20879;55.668;37.858;2023-08-20T01:53:52;26.77;;;17.75;;
34673;SDS011;20879;55.668;37.858;2023-08-20T01:56:23;25.55;;;17.88;;
34673;SDS011;20879;55.668;37.858;2023-08-20T01:58:55;22.35;;;16.98;;
34673;SDS011;20879;55.668;37.858;2023-08-20T02:03:53;21.48;;;15.85;;
34673;SDS011;20879;55.668;37.858;2023-08-20T02:06:29;28.05;;;17.75;;
34673;SDS011;20879;55.668;37.858;2023-08-20T02:09:03;28.52;;;17.67;;
34673;SDS011;20879;55.668;37.858;2023-08-20T02:11:34;24.15;;;16.63;;
34673;SDS011;20879;55.668;37.858;2023-08-20T02:14:13;21.92;;;17.58;;
34673;SDS011;20879;55.668;37.858;2023-08-20T02:16:43;28.52;;;17.02;;
34673;SDS011;20879;55.668;37.858;2023-08-20T02:19:18;25.17;;;17.15;;
34673;SDS011;20879;55.668;37.858;2023-08-20T02:24:37;37.67;;;19.50;;
34673;SDS011;20879;55.668;37.858;2023-08-20T02:27:15;29.55;;;19.20;;
34673;SDS011;20879;55.668;37.858;2023-08-20T02:29:53;31.13;;;18.33;;
34673;SDS011;20879;55.668;37.858;2023-08-20T02:32:23;29.52;;;19.55;;
34673;SDS011;20879;55.668;37.858;2023-08-20T02:34:53;29.42;;;18.63;;
34673;SDS011;20879;55.668;37.858;2023-08-20T02:37:25;31.27;;;19.58;;
34673;SDS011;20879;55.668;37.858;2023-08-20T02:39:56;29.92;;;19.05;;
34673;SDS011;20879;55.668;37.858;2023-08-20T02:42:30;31.40;;;20.48;;
34673;SDS011;20879;55.668;37.858;2023-08-20T02:45:02;32.25;;;19.80;;
34673;SDS011;20879;55.668;37.858;2023-08-20T02:47:40;26.98;;;19.08;;
34673;SDS011;20879;55.668;37.858;2023-08-20T02:50:12;34.47;;;19.48;;
34673;SDS011;20879;55.668;37.858;2023-08-20T02:55:34;37.30;;;20.25;;
34673;SDS011;20879;55.668;37.858;2023-08-20T02:58:05;36.20;;;20.33;;
34673;SDS011;20879;55.668;37.858;2023-08-20T03:00:50;34.28;;;20.15;;
34673;SDS011;20879;55.668;37.858;2023-08-20T03:03:20;50.88;;;22.40;;
34673;SDS011;20879;55.668;37.858;2023-08-20T03:05:57;38.70;;;27.85;;
34673;SDS011;20879;55.668;37.858;2023-08-20T03:08:27;35.20;;;23.98;;
34673;SDS011;20879;55.668;37.858;2023-08-20T03:10:56;38.63;;;24.77;;
34673;SDS011;20879;55.668;37.858;2023-08-20T03:13:32;30.00;;;22.38;;
34673;SDS011;20879;55.668;37.858;2023-08-20T03:16:17;31.75;;;22.15;;
34673;SDS011;20879;55.668;37.858;2023-08-20T03:18:49;29.58;;;22.20;;
34673;SDS011;20879;55.668;37.858;2023-08-20T03:21:25;31.20;;;22.50;;
34673;SDS011;20879;55.668;37.858;2023-08-20T03:24:09;31.25;;;21.90;;
34673;SDS011;20879;55.668;37.858;2023-08-20T03:26:42;31.02;;;20.40;;
34673;SDS011;20879;55.668;37.858;2023-08-20T03:29:13;28.58;;;21.05;;
34673;SDS011;20879;55.668;37.858;2023-08-20T03:31:45;31.17;;;19.88;;
34673;SDS011;20879;55.668;37.858;2023-08-20T03:34:16;22.35;;;18.38;;
34673;SDS011;20879;55.668;37.858;2023-08-20T03:36:54;26.75;;;20.50;;
34673;SDS011;20879;55.668;37.858;2023-08-20T03:39:23;31.17;;;20.05;;
34673;SDS011;20879;55.668;37.858;2023-08-20T03:42:00;29.58;;;20.63;;
34673;SDS011;20879;55.668;37.858;2023-08-20T03:44:34;30.88;;;19.77;;
34673;SDS011;20879;55.668;37.858;2023-08-20T03:47:11;27.58;;;19.27;;
34673;SDS011;20879;55.668;37.858;2023-08-20T03:49:41;29.00;;;19.90;;
34673;SDS011;20879;55.668;37.858;2023-08-20T03:52:13;25.63;;;19.15;;
34673;SDS011;20879;55.668;37.858;2023-08-20T03:54:47;25.20;;;18.83;;
34673;SDS011;20879;55.668;37.858;2023-08-20T03:57:18;25.70;;;19.52;;
34673;SDS011;20879;55.668;37.858;2023-08-20T03:59:52;29.80;;;18.88;;
34673;SDS011;20879;55.668;37.858;2023-08-20T04:02:44;27.25;;;19.52;;
34673;SDS011;20879;55.668;37.858;2023-08-20T04:05:13;17.00;;;11.52;;
34673;SDS011;20879;55.668;37.858;2023-08-20T04:07:49;21.55;;;15.50;;
34673;SDS011;20879;55.668;37.858;2023-08-20T04:10:20;17.38;;;11.35;;
34673;SDS011;20879;55.668;37.858;2023-08-20T04:12:51;17.92;;;13.60;;
34673;SDS011;20879;55.668;37.858;2023-08-20T04:15:26;17.30;;;14.20;;
34673;SDS011;20879;55.668;37.858;2023-08-20T04:17:58;24.80;;;15.30;;
34673;SDS011;20879;55.668;37.858;2023-08-20T04:20:33;17.27;;;14.63;;
34673;SDS011;20879;55.668;37.858;2023-08-20T04:23:04;18.83;;;14.13;;
34673;SDS011;20879;55.668;37.858;2023-08-20T04:28:17;20.67;;;13.75;;
34673;SDS011;20879;55.668;37.858;2023-08-20T04:30:51;20.25;;;15.23;;
34673;SDS011;20879;55.668;37.858;2023-08-20T04:33:40;19.10;;;14.75;;
34673;SDS011;20879;55.668;37.858;2023-08-20T04:36:15;23.75;;;16.75;;
34673;SDS011;20879;55.668;37.858;2023-08-20T04:38:46;25.85;;;18.35;;
34673;SDS011;20879;55.668;37.858;2023-08-20T04:41:16;26.17;;;19.27;;
34673;SDS011;20879;55.668;37.858;2023-08-20T04:43:51;27.27;;;20.40;;
34673;SDS011;20879;55.668;37.858;2023-08-20T04:46:29;25.38;;;18.83;;
34673;SDS011;20879;55.668;37.858;2023-08-20T04:49:01;25.15;;;18.80;;
34673;SDS011;20879;55.668;37.858;2023-08-20T04:51:37;25.67;;;20.98;;
34673;SDS011;20879;55.668;37.858;2023-08-20T04:54:12;25.85;;;20.00;;
34673;SDS011;20879;55.668;37.858;2023-08-20T04:59:24;23.20;;;17.60;;
34673;SDS011;20879;55.668;37.858;2023-08-20T05:02:03;20.42;;;14.90;;
34673;SDS011;20879;55.668;37.858;2023-08-20T05:04:46;21.00;;;15.95;;
34673;SDS011;20879;55.668;37.858;2023-08-20T05:07:17;20.15;;;15.10;;
34673;SDS011;20879;55.668;37.858;2023-08-20T05:09:49;19.58;;;14.50;;
34673;SDS011;20879;55.668;37.858;2023-08-20T05:12:20;24.80;;;16.10;;
34673;SDS011;20879;55.668;37.858;2023-08-20T05:14:49;21.33;;;16.15;;
34673;SDS011;20879;55.668;37.858;2023-08-20T05:17:22;21.42;;;15.88;;
34673;SDS011;20879;55.668;37.858;2023-08-20T05:19:57;19.25;;;15.52;;
34673;SDS011;20879;55.668;37.858;2023-08-20T05:22:29;18.33;;;14.10;;
34673;SDS011;20879;55.668;37.858;2023-08-20T05:25:05;17.80;;;14.25;;
34673;SDS011;20879;55.668;37.858;2023-08-20T05:27:45;17.17;;;12.93;;
34673;SDS011;20879;55.668;37.858;2023-08-20T05:30:16;15.07;;;12.07;;
34673;SDS011;20879;55.668;37.858;2023-08-20T05:32:46;15.50;;;11.32;;
34673;SDS011;20879;55.668;37.858;2023-08-20T05:35:24;15.15;;;10.80;;
34673;SDS011;20879;55.668;37.858;2023-08-20T05:37:55;14.40;;;10.70;;
34673;SDS011;20879;55.668;37.858;2023-08-20T05:40:27;15.38;;;10.77;;
34673;SDS011;20879;55.668;37.858;2023-08-20T05:42:57;16.02;;;11.32;;
34673;SDS011;20879;55.668;37.858;2023-08-20T05:45:35;13.77;;;10.20;;
34673;SDS011;20879;55.668;37.858;2023-08-20T05:48:05;14.50;;;11.98;;
34673;SDS011;20879;55.668;37.858;2023-08-20T05:50:37;15.40;;;11.05;;
34673;SDS011;20879;55.668;37.858;2023-08-20T05:53:13;17.90;;;11.35;;
34673;SDS011;20879;55.668;37.858;2023-08-20T05:55:46;17.10;;;12.23;;
34673;SDS011;20879;55.668;37.858;2023-08-20T05:58:15;14.48;;;11.05;;
34673;SDS011;20879;55.668;37.858;2023-08-20T06:00:47;15.43;;;10.48;;
34673;SDS011;20879;55.668;37.858;2023-08-20T06:03:17;12.68;;;9.55;;
34673;SDS011;20879;55.668;37.858;2023-08-20T06:05:48;12.45;;;10.25;;
34673;SDS011;20879;55.668;37.858;2023-08-20T06:08:19;14.15;;;10.10;;
34673;SDS011;20879;55.668;37.858;2023-08-20T06:10:56;13.30;;;10.15;;
34673;SDS011;20879;55.668;37.858;2023-08-20T06:13:34;13.45;;;10.27;;
34673;SDS011;20879;55.668;37.858;2023-08-20T06:16:07;13.10;;;10.38;;
34673;SDS011;20879;55.668;37.858;2023-08-20T06:21:11;15.00;;;10.45;;
34673;SDS011;20879;55.668;37.858;2023-08-20T06:26:28;12.70;;;10.52;;
34673;SDS011;20879;55.668;37.858;2023-08-20T06:28:58;15.18;;;11.20;;
34673;SDS011;20879;55.668;37.858;2023-08-20T06:31:27;14.70;;;11.73;;
34673;SDS011;20879;55.668;37.858;2023-08-20T06:33:59;18.17;;;13.45;;
34673;SDS011;20879;55.668;37.858;2023-08-20T06:36:34;15.50;;;12.73;;
34673;SDS011;20879;55.668;37.858;2023-08-20T06:39:03;17.55;;;11.82;;
34673;SDS011;20879;55.668;37.858;2023-08-20T06:44:12;15.75;;;11.90;;
34673;SDS011;20879;55.668;37.858;2023-08-20T06:46:48;16.02;;;11.90;;
34673;SDS011;20879;55.668;37.858;2023-08-20T06:49:19;17.60;;;12.75;;
34673;SDS011;20879;55.668;37.858;2023-08-20T06:51:53;16.05;;;12.77;;
34673;SDS011;20879;55.668;37.858;2023-08-20T06:54:32;14.90;;;12.40;;
34673;SDS011;20879;55.668;37.858;2023-08-20T06:57:02;15.10;;;11.70;;
34673;SDS011;20879;55.668;37.858;2023-08-20T06:59:35;14.30;;;11.40;;
34673;SDS011;20879;55.668;37.858;2023-08-20T07:02:05;15.27;;;11.70;;
34673;SDS011;20879;55.668;37.858;2023-08-20T07:04:37;17.42;;;11.60;;
34673;SDS011;20879;55.668;37.858;2023-08-20T07:07:12;11.77;;;9.00;;
34673;SDS011;20879;55.668;37.858;2023-08-20T07:09:42;11.95;;;8.65;;
34673;SDS011;20879;55.668;37.858;2023-08-20T07:12:19;9.88;;;8.05;;
34673;SDS011;20879;55.668;37.858;2023-08-20T07:14:51;11.15;;;9.10;;
34673;SDS011;20879;55.668;37.858;2023-08-20T07:17:23;9.55;;;7.65;;
34673;SDS011;20879;55.668;37.858;2023-08-20T07:19:53;10.05;;;7.45;;
34673;SDS011;20879;55.668;37.858;2023-08-20T07:22:30;10.30;;;8.00;;
34673;SDS011;20879;55.668;37.858;2023-08-20T07:25:12;9.80;;;7.45;;
34673;SDS011;20879;55.668;37.858;2023-08-20T07:27:47;9.13;;;7.35;;
34673;SDS011;20879;55.668;37.858;2023-08-20T07:30:23;14.57;;;8.13;;
34673;SDS011;20879;55.668;37.858;2023-08-20T07:33:00;16.00;;;8.55;;
34673;SDS011;20879;55.668;37.858;2023-08-20T07:35:46;13.68;;;9.73;;
34673;SDS011;20879;55.668;37.858;2023-08-20T07:38:23;15.80;;;10.48;;
34673;SDS011;20879;55.668;37.858;2023-08-20T07:40:57;18.75;;;10.55;;
34673;SDS011;20879;55.668;37.858;2023-08-20T07:43:28;15.50;;;10.50;;
34673;SDS011;20879;55.668;37.858;2023-08-20T07:46:05;16.92;;;9.95;;
34673;SDS011;20879;55.668;37.858;2023-08-20T07:48:38;15.43;;;9.57;;
34673;SDS011;20879;55.668;37.858;2023-08-20T07:51:08;14.95;;;9.98;;
34673;SDS011;20879;55.668;37.858;2023-08-20T07:53:45;18.55;;;10.55;;
34673;SDS011;20879;55.668;37.858;2023-08-20T07:58:53;18.58;;;11.15;;
34673;SDS011;20879;55.668;37.858;2023-08-20T08:01:24;14.15;;;11.20;;
34673;SDS011;20879;55.668;37.858;2023-08-20T08:04:04;15.43;;;11.25;;
34673;SDS011;20879;55.668;37.858;2023-08-20T08:06:46;15.23;;;11.80;;
34673;SDS011;20879;55.668;37.858;2023-08-20T08:09:22;12.35;;;9.95;;
34673;SDS011;20879;55.668;37.858;2023-08-20T08:11:56;13.52;;;9.65;;
34673;SDS011;20879;55.668;37.858;2023-08-20T08:14:34;17.90;;;9.73;;
34673;SDS011;20879;55.668;37.858;2023-08-20T08:17:05;15.73;;;9.43;;
34673;SDS011;20879;55.668;37.858;2023-08-20T08:19:44;11.18;;;9.18;;
34673;SDS011;20879;55.668;37.858;2023-08-20T08:22:15;13.77;;;8.77;;
34673;SDS011;20879;55.668;37.858;2023-08-20T08:24:53;12.45;;;9.55;;
34673;SDS011;20879;55.668;37.858;2023-08-20T08:27:33;17.38;;;9.73;;
34673;SDS011;20879;55.668;37.858;2023-08-20T08:30:29;12.75;;;9.05;;
34673;SDS011;20879;55.668;37.858;2023-08-20T08:33:07;11.73;;;8.82;;
34673;SDS011;20879;55.668;37.858;2023-08-20T08:35:38;14.05;;;9.10;;
34673;SDS011;20879;55.668;37.858;2023-08-20T08:38:15;12.88;;;8.98;;
34673;SDS011;20879;55.668;37.858;2023-08-20T08:40:47;12.40;;;9.20;;
34673;SDS011;20879;55.668;37.858;2023-08-20T08:43:18;12.30;;;9.52;;
34673;SDS011;20879;55.668;37.858;2023-08-20T08:45:50;14.88;;;9.10;;
34673;SDS011;20879;55.668;37.858;2023-08-20T08:48:24;13.30;;;8.57;;
34673;SDS011;20879;55.668;37.858;2023-08-20T08:51:18;11.77;;;8.77;;
34673;SDS011;20879;55.668;37.858;2023-08-20T08:53:54;11.30;;;8.30;;
34673;SDS011;20879;55.668;37.858;2023-08-20T08:56:31;13.48;;;7.90;;
34673;SDS011;20879;55.668;37.858;2023-08-20T08:59:02;8.93;;;5.68;;
34673;SDS011;20879;55.668;37.858;2023-08-20T09:01:32;9.63;;;5.47;;
34673;SDS011;20879;55.668;37.858;2023-08-20T09:04:07;5.80;;;5.20;;
34673;SDS011;20879;55.668;37.858;2023-08-20T09:06:44;6.20;;;5.18;;
34673;SDS011;20879;55.668;37.858;2023-08-20T09:09:21;8.75;;;5.57;;
34673;SDS011;20879;55.668;37.858;2023-08-20T09:11:54;9.77;;;5.30;;
34673;SDS011;20879;55.668;37.858;2023-08-20T09:14:24;8.10;;;4.53;;
34673;SDS011;20879;55.668;37.858;2023-08-20T09:16:59;7.93;;;4.30;;
34673;SDS011;20879;55.668;37.858;2023-08-20T09:19:32;5.90;;;4.35;;
34673;SDS011;20879;55.668;37.858;2023-08-20T09:22:06;4.88;;;4.38;;
34673;SDS011;20879;55.668;37.858;2023-08-20T09:24:38;5.10;;;4.30;;
34673;SDS011;20879;55.668;37.858;2023-08-20T09:27:17;7.28;;;4.50;;
34673;SDS011;20879;55.668;37.858;2023-08-20T09:29:47;5.90;;;4.40;;
34673;SDS011;20879;55.668;37.858;2023-08-20T09:32:18;10.00;;;4.25;;
34673;SDS011;20879;55.668;37.858;2023-08-20T09:34:50;7.90;;;4.90;;
34673;SDS011;20879;55.668;37.858;2023-08-20T09:37:22;8.25;;;4.57;;
34673;SDS011;20879;55.668;37.858;2023-08-20T09:40:00;7.10;;;4.45;;
34673;SDS011;20879;55.668;37.858;2023-08-20T09:42:33;7.60;;;4.97;;
34673;SDS011;20879;55.668;37.858;2023-08-20T09:45:03;4.57;;;4.00;;
34673;SDS011;20879;55.668;37.858;2023-08-20T09:47:35;6.72;;;4.80;;
34673;SDS011;20879;55.668;37.858;2023-08-20T09:50:06;8.40;;;5.45;;
34673;SDS011;20879;55.668;37.858;2023-08-20T09:52:44;7.25;;;5.20;;
34673;SDS011;20879;55.668;37.858;2023-08-20T09:55:22;9.07;;;4.95;;
34673;SDS011;20879;55.668;37.858;2023-08-20T09:58:04;6.50;;;4.90;;
34673;SDS011;20879;55.668;37.858;2023-08-20T10:03:17;6.40;;;4.60;;
34673;SDS011;20879;55.668;37.858;2023-08-20T10:05:49;7.85;;;5.05;;
34673;SDS011;20879;55.668;37.858;2023-08-20T10:08:23;9.52;;;4.75;;
34673;SDS011;20879;55.668;37.858;2023-08-20T10:11:00;5.53;;;4.15;;
34673;SDS011;20879;55.668;37.858;2023-08-20T10:13:37;6.70;;;4.05;;
34673;SDS011;20879;55.668;37.858;2023-08-20T10:16:13;6.18;;;4.25;;
34673;SDS011;20879;55.668;37.858;2023-08-20T10:18:54;5.90;;;4.40;;
34673;SDS011;20879;55.668;37.858;2023-08-20T10:21:30;4.57;;;4.18;;
34673;SDS011;20879;55.668;37.858;2023-08-20T10:24:02;5.15;;;4.18;;
34673;SDS011;20879;55.668;37.858;2023-08-20T10:26:36;6.47;;;4.68;;
34673;SDS011;20879;55.668;37.858;2023-08-20T10:32:09;5.78;;;4.55;;
34673;SDS011;20879;55.668;37.858;2023-08-20T10:34:50;6.15;;;4.70;;
34673;SDS011;20879;55.668;37.858;2023-08-20T10:37:26;6.53;;;4.38;;
34673;SDS011;20879;55.668;37.858;2023-08-20T10:40:05;6.18;;;4.88;;
34673;SDS011;20879;55.668;37.858;2023-08-20T10:42:40;9.68;;;5.72;;
34673;SDS011;20879;55.668;37.858;2023-08-20T10:45:15;6.97;;;5.47;;
34673;SDS011;20879;55.668;37.858;2023-08-20T10:47:47;6.88;;;4.90;;
34673;SDS011;20879;55.668;37.858;2023-08-20T10:50:17;6.87;;;4.97;;
34673;SDS011;20879;55.668;37.858;2023-08-20T10:52:49;8.25;;;4.97;;
34673;SDS011;20879;55.668;37.858;2023-08-20T10:55:29;7.50;;;5.32;;
34673;SDS011;20879;55.668;37.858;2023-08-20T10:58:02;5.57;;;4.82;;
34673;SDS011;20879;55.668;37.858;2023-08-20T11:00:42;7.45;;;5.07;;
34673;SDS011;20879;55.668;37.858;2023-08-20T11:03:14;8.10;;;5.50;;
34673;SDS011;20879;55.668;37.858;2023-08-20T11:05:45;8.77;;;6.28;;
34673;SDS011;20879;55.668;37.858;2023-08-20T11:08:27;6.05;;;5.05;;
34673;SDS011;20879;55.668;37.858;2023-08-20T11:10:57;7.47;;;5.43;;
34673;SDS011;20879;55.668;37.858;2023-08-20T11:13:26;10.75;;;5.28;;
34673;SDS011;20879;55.668;37.858;2023-08-20T11:15:59;6.90;;;4.88;;
34673;SDS011;20879;55.668;37.858;2023-08-20T11:18:34;7.70;;;5.10;;
34673;SDS011;20879;55.668;37.858;2023-08-20T11:23:41;6.47;;;5.10;;
34673;SDS011;20879;55.668;37.858;2023-08-20T11:26:20;7.10;;;5.10;;
34673;SDS011;20879;55.668;37.858;2023-08-20T11:28:50;6.13;;;5.53;;
34673;SDS011;20879;55.668;37.858;2023-08-20T11:31:27;10.43;;;5.80;;
34673;SDS011;20879;55.668;37.858;2023-08-20T11:36:38;8.43;;;5.40;;
34673;SDS011;20879;55.668;37.858;2023-08-20T11:39:10;5.95;;;5.35;;
34673;SDS011;20879;55.668;37.858;2023-08-20T11:41:41;9.52;;;5.35;;
34673;SDS011;20879;55.668;37.858;2023-08-20T11:44:19;8.43;;;5.20;;
34673;SDS011;20879;55.668;37.858;2023-08-20T11:46:54;6.50;;;5.85;;
34673;SDS011;20879;55.668;37.858;2023-08-20T11:49:28;5.85;;;5.15;;
34673;SDS011;20879;55.668;37.858;2023-08-20T11:51:58;7.55;;;5.50;;
34673;SDS011;20879;55.668;37.858;2023-08-20T11:54:31;6.63;;;5.70;;
34673;SDS011;20879;55.668;37.858;2023-08-20T11:57:04;7.68;;;6.18;;
34673;SDS011;20879;55.668;37.858;2023-08-20T11:59:40;7.15;;;5.78;;
34673;SDS011;20879;55.668;37.858;2023-08-20T12:02:24;7.15;;;5.90;;
34673;SDS011;20879;55.668;37.858;2023-08-20T12:05:12;8.05;;;5.60;;
34673;SDS011;20879;55.668;37.858;2023-08-20T12:07:41;7.45;;;5.25;;
34673;SDS011;20879;55.668;37.858;2023-08-20T12:10:32;9.15;;;5.57;;
34673;SDS011;20879;55.668;37.858;2023-08-20T12:13:08;9.48;;;6.45;;
34673;SDS011;20879;55.668;37.858;2023-08-20T12:15:39;10.45;;;7.65;;
34673;SDS011;20879;55.668;37.858;2023-08-20T12:18:11;10.40;;;6.35;;
34673;SDS011;20879;55.668;37.858;2023-08-20T12:20:41;7.93;;;5.00;;
34673;SDS011;20879;55.668;37.858;2023-08-20T12:23:10;10.18;;;3.95;;
34673;SDS011;20879;55.668;37.858;2023-08-20T12:25:41;5.55;;;3.10;;
34673;SDS011;20879;55.668;37.858;2023-08-20T12:28:18;6.82;;;2.97;;
34673;SDS011;20879;55.668;37.858;2023-08-20T12:30:49;2.85;;;2.58;;
34673;SDS011;20879;55.668;37.858;2023-08-20T12:33:22;3.78;;;2.33;;
34673;SDS011;20879;55.668;37.858;2023-08-20T12:38:33;8.43;;;2.90;;
34673;SDS011;20879;55.668;37.858;2023-08-20T12:41:04;2.90;;;2.60;;
34673;SDS011;20879;55.668;37.858;2023-08-20T12:49:42;2.75;;;2.40;;
34673;SDS011;20879;55.668;37.858;2023-08-20T12:52:13;2.90;;;2.65;;
34673;SDS011;20879;55.668;37.858;2023-08-20T12:54:43;3.80;;;2.65;;
34673;SDS011;20879;55.668;37.858;2023-08-20T12:57:13;6.00;;;3.20;;
34673;SDS011;20879;55.668;37.858;2023-08-20T12:59:42;5.32;;;3.30;;
34673;SDS011;20879;55.668;37.858;2023-08-20T13:02:12;6.15;;;3.53;;
34673;SDS011;20879;55.668;37.858;2023-08-20T13:04:51;4.72;;;3.03;;
34673;SDS011;20879;55.668;37.858;2023-08-20T13:07:24;3.38;;;2.92;;
34673;SDS011;20879;55.668;37.858;2023-08-20T13:09:55;6.60;;;3.20;;
34673;SDS011;20879;55.668;37.858;2023-08-20T13:12:30;3.90;;;2.97;;
34673;SDS011;20879;55.668;37.858;2023-08-20T13:15:05;4.95;;;2.90;;
34673;SDS011;20879;55.668;37.858;2023-08-20T13:17:37;6.75;;;3.70;;
34673;SDS011;20879;55.668;37.858;2023-08-20T13:20:20;6.20;;;3.20;;
34673;SDS011;20879;55.668;37.858;2023-08-20T13:22:51;6.75;;;3.33;;
34673;SDS011;20879;55.668;37.858;2023-08-20T13:25:27;3.88;;;3.30;;
34673;SDS011;20879;55.668;37.858;2023-08-20T13:28:10;6.40;;;3.75;;
34673;SDS011;20879;55.668;37.858;2023-08-20T13:30:46;8.65;;;6.10;;
34673;SDS011;20879;55.668;37.858;2023-08-20T13:33:15;6.57;;;4.63;;
34673;SDS011;20879;55.668;37.858;2023-08-20T13:35:47;9.05;;;5.75;;
34673;SDS011;20879;55.668;37.858;2023-08-20T13:38:26;6.93;;;4.82;;
34673;SDS011;20879;55.668;37.858;2023-08-20T13:40:55;8.10;;;4.57;;
34673;SDS011;20879;55.668;37.858;2023-08-20T13:43:28;5.75;;;4.10;;
34673;SDS011;20879;55.668;37.858;2023-08-20T13:45:58;5.47;;;4.22;;
34673;SDS011;20879;55.668;37.858;2023-08-20T13:48:28;5.95;;;4.32;;
34673;SDS011;20879;55.668;37.858;2023-08-20T13:51:01;5.45;;;4.32;;
34673;SDS011;20879;55.668;37.858;2023-08-20T13:53:36;5.82;;;4.10;;
34673;SDS011;20879;55.668;37.858;2023-08-20T13:56:07;8.02;;;4.65;;
34673;SDS011;20879;55.668;37.858;2023-08-20T13:58:46;4.45;;;4.00;;
34673;SDS011;20879;55.668;37.858;2023-08-20T14:01:23;6.85;;;4.63;;
34673;SDS011;20879;55.668;37.858;2023-08-20T14:03:53;6.63;;;4.75;;
34673;SDS011;20879;55.668;37.858;2023-08-20T14:06:25;8.45;;;5.25;;
34673;SDS011;20879;55.668;37.858;2023-08-20T14:09:00;7.40;;;5.28;;
34673;SDS011;20879;55.668;37.858;2023-08-20T14:11:37;5.88;;;5.05;;
34673;SDS011;20879;55.668;37.858;2023-08-20T14:14:13;7.38;;;5.68;;
34673;SDS011;20879;55.668;37.858;2023-08-20T14:16:42;7.72;;;5.78;;
34673;SDS011;20879;55.668;37.858;2023-08-20T14:19:13;8.88;;;6.03;;
34673;SDS011;20879;55.668;37.858;2023-08-20T14:21:45;12.07;;;6.72;;
34673;SDS011;20879;55.668;37.858;2023-08-20T14:24:16;8.90;;;6.93;;
34673;SDS011;20879;55.668;37.858;2023-08-20T14:26:47;9.38;;;6.80;;
34673;SDS011;20879;55.668;37.858;2023-08-20T14:29:17;7.78;;;6.47;;
34673;SDS011;20879;55.668;37.858;2023-08-20T14:31:49;8.25;;;6.55;;
34673;SDS011;20879;55.668;37.858;2023-08-20T14:34:22;10.30;;;7.00;;
34673;SDS011;20879;55.668;37.858;2023-08-20T14:36:57;8.45;;;6.22;;
34673;SDS011;20879;55.668;37.858;2023-08-20T14:39:33;8.27;;;6.53;;
34673;SDS011;20879;55.668;37.858;2023-08-20T14:42:06;8.60;;;6.45;;
34673;SDS011;20879;55.668;37.858;2023-08-20T14:44:46;7.47;;;6.20;;
34673;SDS011;20879;55.668;37.858;2023-08-20T14:47:20;6.65;;;6.05;;
34673;SDS011;20879;55.668;37.858;2023-08-20T14:50:00;9.38;;;6.55;;
34673;SDS011;20879;55.668;37.858;2023-08-20T14:52:40;10.65;;;7.25;;
34673;SDS011;20879;55.668;37.858;2023-08-20T14:55:18;8.55;;;7.20;;
34673;SDS011;20879;55.668;37.858;2023-08-20T14:57:50;10.88;;;6.90;;
34673;SDS011;20879;55.668;37.858;2023-08-20T15:00:23;11.27;;;7.53;;
34673;SDS011;20879;55.668;37.858;2023-08-20T15:02:53;9.55;;;7.20;;
34673;SDS011;20879;55.668;37.858;2023-08-20T15:05:29;9.52;;;7.20;;
34673;SDS011;20879;55.668;37.858;2023-08-20T15:08:01;10.27;;;7.00;;
34673;SDS011;20879;55.668;37.858;2023-08-20T15:10:33;9.18;;;7.07;;
34673;SDS011;20879;55.668;37.858;2023-08-20T15:13:11;7.80;;;7.00;;
34673;SDS011;20879;55.668;37.858;2023-08-20T15:15:41;10.07;;;6.70;;
34673;SDS011;20879;55.668;37.858;2023-08-20T15:18:11;9.35;;;7.38;;
34673;SDS011;20879;55.668;37.858;2023-08-20T15:20:45;15.63;;;12.18;;
34673;SDS011;20879;55.668;37.858;2023-08-20T15:23:25;15.70;;;12.95;;
34673;SDS011;20879;55.668;37.858;2023-08-20T15:25:58;14.00;;;11.73;;
34673;SDS011;20879;55.668;37.858;2023-08-20T15:28:34;12.45;;;10.77;;
34673;SDS011;20879;55.668;37.858;2023-08-20T15:31:03;13.45;;;10.60;;
34673;SDS011;20879;55.668;37.858;2023-08-20T15:33:34;14.50;;;10.90;;
34673;SDS011;20879;55.668;37.858;2023-08-20T15:36:04;12.68;;;9.68;;
34673;SDS011;20879;55.668;37.858;2023-08-20T15:38:36;12.85;;;9.48;;
34673;SDS011;20879;55.668;37.858;2023-08-20T15:41:06;13.88;;;9.65;;
34673;SDS011;20879;55.668;37.858;2023-08-20T15:43:36;12.93;;;9.68;;
34673;SDS011;20879;55.668;37.858;2023-08-20T15:46:13;12.60;;;9.00;;
34673;SDS011;20879;55.668;37.858;2023-08-20T15:48:43;12.85;;;9.07;;